DFFD/OUA METAR and TAF weather

Enter ICAO airport designator
Station Type Date Time Source
DFFD METAR 2018/07/21 13:00 UTC NOAA

DFFD 211300Z 28006KT 9999 SCT020 31/22 Q1012 NOSIG


Station Type Date Time Source
DFFD Decoded METAR 2018/07/21 13:00 UTC NOAA

Ouagadougou, Burkina Faso (DFFD) 12-21N 001-31W 306M
Jul 21, 2018 - 09:00 AM EDT / 2018.07.21 1300 UTC
Wind: from the W (280 degrees) at 7 MPH (6 KT):0
Visibility: greater than 7 mile(s):0
Sky conditions: partly cloudy
Temperature: 87 F (31 C)
Heat index: 92.3 F (33.5 C):1
Dew Point: 71 F (22 C)
Relative Humidity: 58%
Pressure (altimeter): 29.88 in. Hg (1012 hPa)
ob: DFFD 211300Z 28006KT 9999 SCT020 31/22 Q1012 NOSIG
cycle: 13

Station Type Date Time Source
DFFD TAF 2018/07/21 12:21 UTC NOAA

TAF TAF DFFD 211100Z 2112/2218 24008KT 9999 SCT020
TEMPO 2114/2122 4000 TSRA SCT020 SCT036CB


Example: see airport list